createdAt,value
2022-08-17T00:01:51.285Z,99896.66
2022-08-17T00:04:19.828Z,99854.78
2022-08-17T00:06:49.077Z,99895.28
2022-08-17T00:09:19.441Z,99842.44
2022-08-17T00:12:41.140Z,99849.22
2022-08-17T00:14:36.297Z,99891.09
2022-08-17T00:17:06.466Z,99887.66
2022-08-17T00:19:34.192Z,99892.13
2022-08-17T00:22:32.215Z,99879.59
2022-08-17T00:24:52.014Z,99897.66
2022-08-17T00:27:20.009Z,99892.78
2022-08-17T00:29:48.197Z,99889.91
2022-08-17T00:33:14.593Z,99890.06
2022-08-17T00:35:05.327Z,99844.84
2022-08-17T00:37:33.064Z,99890.09
2022-08-17T00:40:02.214Z,99889.75
2022-08-17T00:42:31.252Z,99888.88
2022-08-17T00:44:59.121Z,99882.16
2022-08-17T00:47:26.904Z,99875.72
2022-08-17T00:49:55.044Z,99884.00
2022-08-17T00:52:23.923Z,99828.13
2022-08-17T00:54:53.297Z,99843.31
2022-08-17T00:57:24.164Z,99881.28
2022-08-17T01:00:02.774Z,99841.31
2022-08-17T01:02:34.430Z,99807.06
2022-08-17T01:05:09.611Z,99838.59
2022-08-17T01:07:38.023Z,99876.22
2022-08-17T01:10:07.390Z,99872.69
2022-08-17T01:12:56.737Z,99875.56
2022-08-17T01:15:24.444Z,99877.44
2022-08-17T01:17:52.159Z,99878.44
2022-08-17T01:20:19.991Z,99880.66
2022-08-17T01:22:49.185Z,99878.63
2022-08-17T01:25:16.993Z,99835.09
2022-08-17T01:27:44.849Z,99887.09
2022-08-17T01:30:57.047Z,99868.34
2022-08-17T01:33:00.962Z,99828.53
2022-08-17T01:35:28.658Z,99889.28
2022-08-17T01:37:57.754Z,99886.56
2022-08-17T01:40:27.155Z,99847.09
2022-08-17T01:42:56.849Z,99873.91
2022-08-17T01:45:27.611Z,99871.72
2022-08-17T01:47:55.518Z,99873.91
2022-08-17T01:50:25.991Z,99834.41
2022-08-17T01:52:57.346Z,99862.94
2022-08-17T01:55:27.921Z,99869.53
2022-08-17T01:57:55.993Z,99877.47
2022-08-17T02:00:23.787Z,99874.94
2022-08-17T02:02:51.598Z,99873.22
2022-08-17T02:05:19.450Z,99873.22
2022-08-17T02:07:59.741Z,99882.38
2022-08-17T02:10:33.719Z,99829.00
2022-08-17T02:13:02.175Z,99877.31
2022-08-17T02:15:29.923Z,99881.38
2022-08-17T02:17:57.648Z,99881.38
2022-08-17T02:20:42.641Z,99873.94
2022-08-17T02:23:11.906Z,99878.84
2022-08-17T02:25:42.120Z,99847.75
2022-08-17T02:28:09.890Z,99884.59
2022-08-17T02:31:00.252Z,99880.16
2022-08-17T02:33:43.037Z,99825.47
2022-08-17T02:36:11.644Z,99872.41
2022-08-17T02:38:39.812Z,99871.59
2022-08-17T02:41:09.087Z,99884.25
2022-08-17T02:43:36.809Z,99862.44
2022-08-17T02:46:04.479Z,99869.53
2022-08-17T02:48:32.335Z,99869.53
2022-08-17T02:51:00.200Z,99810.94
2022-08-17T02:53:28.120Z,99861.75
2022-08-17T02:56:03.403Z,99869.19
2022-08-17T02:58:35.331Z,99877.97
2022-08-17T03:01:03.892Z,99873.56
2022-08-17T03:03:31.634Z,99871.88
2022-08-17T03:05:59.335Z,99871.88
2022-08-17T03:08:27.274Z,99855.53
2022-08-17T03:10:55.114Z,99817.03
2022-08-17T03:13:22.848Z,99874.41
2022-08-17T03:15:51.902Z,99869.84
2022-08-17T03:18:25.636Z,99874.56
2022-08-17T03:20:55.175Z,99871.22
2022-08-17T03:23:24.099Z,99870.53
2022-08-17T03:25:53.718Z,99875.94
2022-08-17T03:28:21.810Z,99871.56
2022-08-17T03:30:51.658Z,99840.16
2022-08-17T03:33:19.555Z,99875.41
2022-08-17T03:35:47.363Z,99799.25
2022-08-17T03:38:17.149Z,99824.28
2022-08-17T03:40:57.287Z,99865.78
2022-08-17T03:43:27.899Z,99871.72
2022-08-17T03:46:28.452Z,99870.19
2022-08-17T03:49:20.049Z,99873.06
2022-08-17T03:52:05.397Z,99870.53
2022-08-17T03:54:50.897Z,99868.84
2022-08-17T03:57:19.309Z,99870.88
2022-08-17T03:59:47.700Z,99851.78
2022-08-17T04:02:18.568Z,99865.47
2022-08-17T04:04:46.492Z,99873.75
2022-08-17T04:07:14.227Z,99866.78
2022-08-17T04:09:42.911Z,99875.91
2022-08-17T04:12:10.741Z,99876.09
2022-08-17T04:14:53.503Z,99870.84
2022-08-17T04:17:24.362Z,99878.97
2022-08-17T04:19:52.267Z,99831.13
2022-08-17T04:22:32.844Z,99881.31
2022-08-17T04:25:11.067Z,99809.84
2022-08-17T04:27:38.831Z,99877.09
2022-08-17T04:30:08.021Z,99879.94
2022-08-17T04:37:51.278Z,99833.31
2022-08-17T04:40:37.028Z,99893.81
2022-08-17T04:43:05.219Z,99894.97
2022-08-17T04:45:32.907Z,99891.44
2022-08-17T04:48:01.091Z,99898.00
2022-08-17T04:50:28.880Z,99895.13
2022-08-17T04:52:58.207Z,99898.31
2022-08-17T04:55:26.236Z,99903.22
2022-08-17T04:57:54.079Z,99902.38
2022-08-17T05:00:21.860Z,99910.09
2022-08-17T05:02:50.723Z,99865.66
2022-08-17T05:05:19.827Z,99907.88
2022-08-17T05:07:48.442Z,99910.91
2022-08-17T05:10:17.829Z,99914.09
2022-08-17T05:12:45.565Z,99911.88
2022-08-17T05:15:15.957Z,99919.00
2022-08-17T05:17:43.721Z,99928.41
2022-08-17T05:20:11.999Z,99929.09
2022-08-17T05:22:49.430Z,99923.34
2022-08-17T05:25:21.178Z,99932.13
2022-08-17T05:27:53.383Z,99927.53
2022-08-17T05:30:21.079Z,99930.25
2022-08-17T05:32:52.948Z,99924.19
2022-08-17T05:35:21.015Z,99928.66
2022-08-17T05:37:49.300Z,99927.41
2022-08-17T05:40:17.083Z,99924.78
2022-08-17T05:42:46.231Z,99922.00
2022-08-17T05:45:15.694Z,99920.31
2022-08-17T05:47:43.903Z,99922.78
2022-08-17T05:50:11.905Z,99861.63
2022-08-17T05:52:48.070Z,99927.31
2022-08-17T05:55:16.989Z,99930.63
2022-08-17T05:57:53.796Z,99924.47
2022-08-17T06:00:26.227Z,99922.47
2022-08-17T06:03:08.429Z,99925.22
2022-08-17T06:05:44.838Z,99916.00
2022-08-17T06:08:15.604Z,99926.47
2022-08-17T06:10:46.518Z,99936.00
2022-08-17T06:13:19.853Z,99880.69
2022-08-17T06:15:55.228Z,99928.13
2022-08-17T06:18:23.323Z,99926.06
2022-08-17T06:20:53.127Z,99863.47
2022-08-17T06:23:25.001Z,99900.69
2022-08-17T06:25:53.937Z,99909.69
2022-08-17T06:28:25.476Z,99921.53
2022-08-17T06:31:00.516Z,99881.16
2022-08-17T06:33:32.139Z,99919.31
2022-08-17T06:36:03.012Z,99923.00
2022-08-17T06:38:42.575Z,99889.72
2022-08-17T06:41:16.616Z,99923.69
2022-08-17T06:43:51.733Z,99921.69
2022-08-17T06:46:22.704Z,99925.59
2022-08-17T06:48:53.891Z,99905.25
2022-08-17T06:51:25.509Z,99919.69
2022-08-17T06:53:55.108Z,99912.47
2022-08-17T06:56:25.364Z,99916.22
2022-08-17T06:59:15.764Z,99916.31
2022-08-17T07:01:43.483Z,99917.50
2022-08-17T07:04:13.708Z,99841.94
2022-08-17T07:06:43.369Z,99929.09
2022-08-17T07:09:11.935Z,99936.00
2022-08-17T07:11:41.091Z,99925.94
2022-08-17T07:14:22.416Z,99921.19
2022-08-17T07:16:51.618Z,99891.38
2022-08-17T07:19:22.540Z,99927.47
2022-08-17T07:21:54.958Z,99860.69
2022-08-17T07:24:35.640Z,99871.88
2022-08-17T07:27:08.790Z,99914.72
2022-08-17T07:29:44.393Z,99904.59
2022-08-17T07:32:12.456Z,99924.06
2022-08-17T07:35:02.008Z,99920.88
2022-08-17T07:37:33.320Z,99926.59
2022-08-17T07:40:16.030Z,99922.41
2022-08-17T07:42:46.595Z,99920.88
2022-08-17T07:45:29.790Z,99888.22
2022-08-17T07:48:15.710Z,99920.56
2022-08-17T07:50:49.298Z,99930.19
2022-08-17T07:53:18.829Z,99926.63
2022-08-17T07:55:46.568Z,99930.88
2022-08-17T07:58:17.303Z,99922.47
2022-08-17T08:00:46.345Z,99921.31
2022-08-17T08:03:16.853Z,99927.06
2022-08-17T08:05:52.976Z,99921.19
2022-08-17T08:08:25.711Z,99893.81
2022-08-17T08:11:00.160Z,99924.47
2022-08-17T08:13:30.269Z,99915.34
2022-08-17T08:16:20.693Z,99924.88
2022-08-17T08:18:56.116Z,99922.69
2022-08-17T08:21:32.623Z,99932.81
2022-08-17T08:24:02.192Z,99924.25
2022-08-17T08:26:32.752Z,99933.72
2022-08-17T08:29:05.839Z,99936.09
2022-08-17T08:31:47.084Z,99930.38
2022-08-17T08:34:58.817Z,99939.13
2022-08-17T08:37:16.575Z,99939.50
2022-08-17T08:39:53.303Z,99935.31
2022-08-17T08:42:24.406Z,99929.59
2022-08-17T08:45:01.278Z,99865.41
2022-08-17T08:47:49.863Z,99926.94
2022-08-17T08:50:37.006Z,99921.88
2022-08-17T08:53:15.777Z,99926.78
2022-08-17T08:55:48.965Z,99925.28
2022-08-17T08:58:31.478Z,99922.28
2022-08-17T09:01:08.847Z,99931.75
2022-08-17T09:04:23.320Z,99850.81
2022-08-17T09:06:59.240Z,99865.69
2022-08-17T09:09:31.635Z,99879.50
2022-08-17T09:12:04.145Z,99922.50
2022-08-17T09:14:43.105Z,99923.84
2022-08-17T09:17:16.407Z,99931.59
2022-08-17T09:19:47.561Z,99933.16
2022-08-17T09:22:31.348Z,99903.44
2022-08-17T09:25:03.242Z,99877.59
2022-08-17T09:27:33.423Z,99873.56
2022-08-17T09:30:03.284Z,99893.16
2022-08-17T09:32:34.525Z,99918.78
2022-08-17T09:35:06.480Z,99888.22
2022-08-17T09:37:38.877Z,99875.53
2022-08-17T09:40:11.061Z,99862.19
2022-08-17T09:42:43.730Z,99909.56
2022-08-17T09:45:21.026Z,99904.81
2022-08-17T09:47:50.816Z,99872.59
2022-08-17T09:50:55.320Z,99903.47
2022-08-17T09:53:09.600Z,99905.63
2022-08-17T09:55:44.726Z,99849.38
2022-08-17T09:58:15.821Z,99913.16
2022-08-17T10:00:46.769Z,99900.34
2022-08-17T10:03:28.312Z,99910.81
2022-08-17T10:06:01.239Z,99880.81
2022-08-17T10:08:36.535Z,99876.28
2022-08-17T10:11:16.088Z,99895.38
2022-08-17T10:13:53.512Z,99847.09
2022-08-17T10:16:25.660Z,99846.81
2022-08-17T10:19:09.356Z,99837.22
2022-08-17T10:22:00.976Z,99895.78
2022-08-17T10:25:21.739Z,99881.25
2022-08-17T10:27:40.652Z,99880.25
2022-08-17T10:30:09.536Z,99878.53
2022-08-17T10:32:41.462Z,99874.50
2022-08-17T10:35:35.893Z,99860.16
2022-08-17T10:38:27.748Z,99879.94
2022-08-17T10:40:58.415Z,99882.97
2022-08-17T10:43:38.518Z,99832.84
2022-08-17T10:46:30.026Z,99870.63
2022-08-17T10:49:27.154Z,99882.25
2022-08-17T10:51:55.721Z,99848.88
2022-08-17T10:54:58.096Z,99873.00
2022-08-17T10:57:42.097Z,99871.16
2022-08-17T11:00:15.112Z,99844.81
2022-08-17T11:02:49.504Z,99868.44
2022-08-17T11:05:34.316Z,99859.66
2022-08-17T11:08:26.872Z,99870.13
2022-08-17T11:11:20.709Z,99862.84
2022-08-17T11:13:52.612Z,99860.31
2022-08-17T11:16:38.805Z,99867.41
2022-08-17T11:19:33.817Z,99861.81
2022-08-17T11:22:08.122Z,99858.44
2022-08-17T11:24:36.117Z,99860.97
2022-08-17T11:27:12.170Z,99859.81
2022-08-17T11:29:52.075Z,99809.72
2022-08-17T11:32:33.733Z,99842.09
2022-08-17T11:35:15.831Z,99863.34
2022-08-17T11:37:48.476Z,99829.63
2022-08-17T11:40:26.525Z,99855.56
2022-08-17T11:43:19.505Z,99858.28
2022-08-17T11:45:57.175Z,99859.13
2022-08-17T11:48:46.477Z,99863.69
2022-08-17T11:51:34.445Z,99860.97
2022-08-17T11:54:31.091Z,99849.19
2022-08-17T11:56:53.443Z,99862.69
2022-08-17T11:59:58.706Z,99872.66
2022-08-17T12:02:47.779Z,99868.75
2022-08-17T12:05:36.723Z,99865.38
2022-08-17T12:08:12.389Z,99869.09
2022-08-17T12:10:48.286Z,99864.53
2022-08-17T12:13:16.745Z,99854.25
2022-08-17T12:15:49.702Z,99827.28
2022-08-17T12:18:21.551Z,99871.78
2022-08-17T12:21:00.201Z,99867.25
2022-08-17T12:23:35.237Z,99815.78
2022-08-17T12:26:05.829Z,99842.28
2022-08-17T12:28:34.707Z,99866.22
2022-08-17T12:31:05.253Z,99822.03
2022-08-17T12:33:33.056Z,99859.13
2022-08-17T12:36:02.775Z,99864.34
2022-08-17T12:38:33.146Z,99864.34
2022-08-17T12:41:21.464Z,99862.50
2022-08-17T12:43:56.665Z,99816.09
2022-08-17T12:46:25.811Z,99858.28
2022-08-17T12:48:59.014Z,99862.50
2022-08-17T12:51:29.045Z,99860.81
2022-08-17T12:53:56.971Z,99857.91
2022-08-17T12:56:24.683Z,99857.09
2022-08-17T12:58:54.460Z,99854.25
2022-08-17T13:01:23.501Z,99824.66
2022-08-17T13:03:54.859Z,99792.97
2022-08-17T13:06:28.483Z,99814.72
2022-08-17T13:08:56.208Z,99849.66
2022-08-17T13:11:25.130Z,99833.09
2022-08-17T13:13:55.032Z,99840.56
2022-08-17T13:16:23.209Z,99843.56
2022-08-17T13:18:53.868Z,99846.28
2022-08-17T13:21:27.228Z,99822.16
2022-08-17T13:23:57.077Z,99847.97
2022-08-17T13:26:28.097Z,99812.19
2022-08-17T13:28:55.879Z,99847.09
2022-08-17T13:31:32.996Z,99796.03
2022-08-17T13:34:16.276Z,99840.88
2022-08-17T13:36:46.829Z,99846.28
2022-08-17T13:39:18.795Z,99781.34
2022-08-17T13:41:46.345Z,99843.75
2022-08-17T13:44:33.631Z,99846.28
2022-08-17T13:47:01.597Z,99842.91
2022-08-17T13:49:48.198Z,99856.25
2022-08-17T13:52:35.187Z,99849.97
2022-08-17T13:55:07.563Z,99833.97
2022-08-17T13:57:35.264Z,99842.91
2022-08-17T14:00:10.936Z,99844.41
2022-08-17T14:02:38.758Z,99843.75
2022-08-17T14:05:08.408Z,99845.44
2022-08-17T14:07:39.675Z,99774.59
2022-08-17T14:10:11.049Z,99851.88
2022-08-17T14:12:39.682Z,99862.69
2022-08-17T14:15:08.242Z,99812.78
2022-08-17T14:17:38.860Z,99883.28
2022-08-17T14:20:10.439Z,99888.69
2022-08-17T14:22:39.031Z,99813.47
2022-08-17T14:25:08.660Z,99895.31
2022-08-17T14:27:47.108Z,99902.56
2022-08-17T14:30:21.593Z,99909.00
2022-08-17T14:32:51.719Z,99900.03
2022-08-17T14:35:21.921Z,99879.44
2022-08-17T14:37:49.875Z,99877.94
2022-08-17T14:40:24.790Z,99906.66
2022-08-17T14:42:53.432Z,99842.00
2022-08-17T14:45:29.957Z,99886.88
2022-08-17T14:48:01.404Z,99877.06
2022-08-17T14:50:30.522Z,99822.22
2022-08-17T14:53:01.445Z,99869.78
2022-08-17T14:55:29.770Z,99870.97
2022-08-17T14:57:57.499Z,99874.56
2022-08-17T15:00:25.452Z,99887.72
2022-08-17T15:02:54.668Z,99881.09
2022-08-17T15:05:22.680Z,99875.34
2022-08-17T15:07:53.426Z,99869.44
2022-08-17T15:10:21.385Z,99885.16
2022-08-17T15:12:49.117Z,99869.91
2022-08-17T15:15:18.044Z,99821.47
2022-08-17T15:17:46.224Z,99868.50
2022-08-17T15:20:15.275Z,99867.44
2022-08-17T15:22:43.169Z,99866.28
2022-08-17T15:25:13.267Z,99864.03
2022-08-17T15:27:40.993Z,99858.63
2022-08-17T15:30:09.918Z,99805.34
2022-08-17T15:32:39.175Z,99834.81
2022-08-17T15:35:09.208Z,99847.94
2022-08-17T15:37:36.907Z,99833.38
2022-08-17T15:40:05.452Z,99830.81
2022-08-17T15:42:35.470Z,99831.31
2022-08-17T15:45:04.738Z,99818.41
2022-08-17T15:47:32.460Z,99822.50
2022-08-17T15:50:00.591Z,99812.13
2022-08-17T15:52:29.683Z,99768.97
2022-08-17T15:54:58.637Z,99805.19
2022-08-17T15:57:26.439Z,99797.69
2022-08-17T15:59:58.747Z,99796.69
2022-08-17T16:03:46.297Z,99737.09
2022-08-17T16:05:19.783Z,99731.69
2022-08-17T16:07:47.799Z,99792.19
2022-08-17T16:10:19.102Z,99787.41
2022-08-17T16:12:47.626Z,99785.38
2022-08-17T16:15:16.899Z,99753.38
2022-08-17T16:17:44.614Z,99780.81
2022-08-17T16:20:19.928Z,99758.88
2022-08-17T16:22:48.477Z,99776.19
2022-08-17T16:25:18.754Z,99779.75
2022-08-17T16:27:46.926Z,99778.28
2022-08-17T16:30:17.855Z,99768.75
2022-08-17T16:32:45.985Z,99767.91
2022-08-17T16:35:17.266Z,99703.41
2022-08-17T16:37:45.635Z,99764.38
2022-08-17T16:40:13.910Z,99764.81
2022-08-17T16:42:42.816Z,99768.38
2022-08-17T16:45:13.075Z,99720.94
2022-08-17T16:47:42.826Z,99770.41
2022-08-17T16:50:11.702Z,99766.03
2022-08-17T16:52:41.023Z,99769.97
2022-08-17T16:55:09.871Z,99769.47
2022-08-17T16:57:47.589Z,99769.84
2022-08-17T17:00:19.410Z,99766.66
2022-08-17T17:02:49.557Z,99770.75
2022-08-17T17:05:25.400Z,99768.41
2022-08-17T17:08:04.223Z,99731.97
2022-08-17T17:10:38.751Z,99768.09
2022-08-17T17:13:06.957Z,99771.84
2022-08-17T17:15:42.426Z,99727.66
2022-08-17T17:18:12.235Z,99763.34
2022-08-17T17:20:41.713Z,99772.16
2022-08-17T17:23:12.606Z,99764.94
2022-08-17T17:25:44.533Z,99721.09
2022-08-17T17:28:18.912Z,99781.28
2022-08-17T17:30:49.451Z,99790.84
2022-08-17T17:33:21.206Z,99792.38
2022-08-17T17:35:50.114Z,99770.00
2022-08-17T17:38:19.959Z,99794.53
2022-08-17T17:40:48.256Z,99798.91
2022-08-17T17:43:37.607Z,99797.88
2022-08-17T17:46:27.073Z,99791.28
2022-08-17T17:48:57.078Z,99794.81
2022-08-17T17:52:05.247Z,99802.94
2022-08-17T17:54:24.355Z,99803.97
2022-08-17T17:56:55.616Z,99806.19
2022-08-17T17:59:26.944Z,99804.69
2022-08-17T18:01:57.805Z,99779.09
2022-08-17T18:04:29.540Z,99802.03
2022-08-17T18:07:04.876Z,99806.13
2022-08-17T18:10:01.038Z,99810.25
2022-08-17T18:12:33.237Z,99810.78
2022-08-17T18:15:12.344Z,99811.97
2022-08-17T18:17:40.040Z,99809.78
2022-08-17T18:20:09.810Z,99809.97
2022-08-17T18:22:37.829Z,99810.28
2022-08-17T18:25:06.311Z,99811.69
2022-08-17T18:27:35.173Z,99811.00
2022-08-17T18:30:09.097Z,99814.06
2022-08-17T18:32:37.755Z,99821.56
2022-08-17T18:35:30.491Z,99794.09
2022-08-17T18:37:59.008Z,99828.31
2022-08-17T18:40:30.261Z,99820.56
2022-08-17T18:43:06.079Z,99825.16
2022-08-17T18:45:38.162Z,99820.91
2022-08-17T18:48:06.821Z,99815.84
2022-08-17T18:50:41.288Z,99741.03
2022-08-17T18:53:33.998Z,99776.31
2022-08-17T18:56:24.663Z,99843.63
2022-08-17T18:58:55.825Z,99843.81
2022-08-17T19:01:52.243Z,99841.28
2022-08-17T19:04:14.228Z,99784.59
2022-08-17T19:06:43.304Z,99834.53
2022-08-17T19:09:30.734Z,99790.84
2022-08-17T19:11:58.449Z,99833.22
2022-08-17T19:14:26.281Z,99841.50
2022-08-17T19:16:55.603Z,99848.78
2022-08-17T19:19:24.425Z,99846.06
2022-08-17T19:21:55.702Z,99833.56
2022-08-17T19:24:24.269Z,99805.91
2022-08-17T19:26:56.822Z,99839.69
2022-08-17T19:29:27.982Z,99835.28
2022-08-17T19:31:56.244Z,99836.13
2022-08-17T19:34:30.033Z,99798.16
2022-08-17T19:37:06.875Z,99837.31
2022-08-17T19:39:37.945Z,99832.25
2022-08-17T19:42:10.970Z,99826.16
2022-08-17T19:44:48.219Z,99841.38
2022-08-17T19:47:36.171Z,99840.00
2022-08-17T19:50:09.969Z,99854.41
2022-08-17T19:52:44.419Z,99857.09
2022-08-17T19:55:20.948Z,99848.66
2022-08-17T19:57:53.763Z,99819.16
2022-08-17T20:00:21.603Z,99858.63
2022-08-17T20:02:52.613Z,99784.59
2022-08-17T20:05:21.483Z,99871.50
2022-08-17T20:07:53.725Z,99870.81
2022-08-17T20:10:38.722Z,99848.56
2022-08-17T20:13:09.160Z,99850.91
2022-08-17T20:15:37.896Z,99883.81
2022-08-17T20:18:08.642Z,99894.63
2022-08-17T20:20:37.478Z,99895.84
2022-08-17T20:23:10.988Z,99900.38
2022-08-17T20:25:42.019Z,99899.56
2022-08-17T20:28:25.174Z,99866.50
2022-08-17T20:31:11.826Z,99882.03
2022-08-17T20:33:41.821Z,99902.63
2022-08-17T20:36:17.061Z,99902.28
2022-08-17T20:38:48.839Z,99899.56
2022-08-17T20:41:17.113Z,99898.88
2022-08-17T20:43:52.208Z,99898.72
2022-08-17T20:46:28.109Z,99898.06
2022-08-17T20:48:57.874Z,99907.16
2022-08-17T20:51:29.645Z,99914.47
2022-08-17T20:54:18.348Z,99850.28
2022-08-17T20:56:51.332Z,99845.88
2022-08-17T21:00:00.232Z,99910.03
2022-08-17T21:02:29.371Z,99912.91
2022-08-17T21:05:23.229Z,99914.13
2022-08-17T21:07:58.904Z,99920.53
2022-08-17T21:10:36.643Z,99928.66
2022-08-17T21:13:26.686Z,99917.16
2022-08-17T21:15:57.636Z,99918.19
2022-08-17T21:18:28.332Z,99858.38
2022-08-17T21:21:02.855Z,99923.41
2022-08-17T21:23:40.337Z,99925.28
2022-08-17T21:26:30.221Z,99921.88
2022-08-17T21:29:29.719Z,99927.63
2022-08-17T21:32:24.301Z,99929.50
2022-08-17T21:35:31.052Z,99927.16
2022-08-17T21:38:03.514Z,99926.63
2022-08-17T21:40:32.097Z,99880.16
2022-08-17T21:43:20.074Z,99899.25
2022-08-17T21:45:58.374Z,99924.59
2022-08-17T21:48:27.116Z,99861.75
2022-08-17T21:50:59.631Z,99918.69
2022-08-17T21:53:33.228Z,99927.81
2022-08-17T21:56:01.219Z,99928.97
2022-08-17T21:58:33.222Z,99876.78
2022-08-17T22:01:12.281Z,99933.41
2022-08-17T22:03:40.089Z,99936.44
2022-08-17T22:06:21.558Z,99934.56
2022-08-17T22:08:59.905Z,99940.13
2022-08-17T22:11:27.645Z,99949.25
2022-08-17T22:14:05.163Z,99943.47
2022-08-17T22:16:33.800Z,99949.59
2022-08-17T22:19:01.577Z,99950.59
2022-08-17T22:21:29.303Z,99959.69
2022-08-17T22:24:03.993Z,99918.81
2022-08-17T22:27:00.325Z,99961.56
2022-08-17T22:29:47.468Z,99970.66
2022-08-17T22:32:37.303Z,99984.16
2022-08-17T22:35:26.511Z,99990.75
2022-08-17T22:37:54.195Z,99986.38
2022-08-17T22:40:26.609Z,99947.16
2022-08-17T22:42:54.330Z,99989.09
2022-08-17T22:45:23.775Z,99994.47
2022-08-17T22:47:55.570Z,99958.31
2022-08-17T22:50:24.193Z,99998.19
2022-08-17T22:53:17.234Z,99963.88
2022-08-17T22:56:08.875Z,100001.03
2022-08-17T22:58:58.989Z,99997.84
2022-08-17T23:01:29.696Z,100007.81
2022-08-17T23:03:58.213Z,99971.78
2022-08-17T23:06:25.942Z,100001.88
2022-08-17T23:08:54.904Z,99999.34
2022-08-17T23:11:42.793Z,99945.44
2022-08-17T23:14:13.776Z,99932.06
2022-08-17T23:16:43.581Z,99998.84
2022-08-17T23:19:11.339Z,99991.72
2022-08-17T23:21:39.115Z,99987.19
2022-08-17T23:24:08.842Z,99995.44
2022-08-17T23:26:39.311Z,99930.88
2022-08-17T23:29:07.072Z,99989.38
2022-08-17T23:31:35.215Z,99982.28
2022-08-17T23:34:04.380Z,99983.31
2022-08-17T23:36:33.615Z,99963.03
2022-08-17T23:39:01.305Z,99975.38
2022-08-17T23:41:31.616Z,99985.31
2022-08-17T23:43:59.329Z,99975.53
2022-08-17T23:46:27.086Z,99979.06
2022-08-17T23:48:54.778Z,99978.41
2022-08-17T23:51:26.041Z,99973.97
2022-08-17T23:53:57.957Z,99969.59
2022-08-17T23:56:26.011Z,99979.56
2022-08-17T23:58:54.758Z,99916.13
